Time;durP1;ratioP1;P1;durP2;ratioP2;P2;SDS_P1;SDS_P2;PMS_P1;PMS_P2;Temp;Humidity;BMP_temperature;BMP_pressure;BME280_temperature;BME280_humidity;BME280_pressure;Samples;Min_cycle;Max_cycle;Signal;HPM_P1;HPM_P2
2022/05/14 00:00:53;;;;;;;2.73;1.17;;;;;;;;;;4952494;28;20184;-77
2022/05/14 00:03:19;;;;;;;1.67;1.17;;;;;;;;;;4953144;28;20193;-77
2022/05/14 00:05:44;;;;;;;1.27;1.17;;;;;;;;;;4966243;28;20185;-78
2022/05/14 00:08:10;;;;;;;1.77;1.20;;;;;;;;;;4951281;28;20232;-77
2022/05/14 00:13:19;;;;;;;5.20;1.73;;;;;;;;;;4947831;28;20207;-78
2022/05/14 00:15:45;;;;;;;1.63;1.33;;;;;;;;;;4953155;29;20213;-77
2022/05/14 00:18:10;;;;;;;3.53;1.07;;;;;;;;;;4951871;28;20180;-77
2022/05/14 00:20:36;;;;;;;3.53;1.53;;;;;;;;;;4948368;28;20185;-78
2022/05/14 00:23:02;;;;;;;3.33;1.30;;;;;;;;;;4951234;28;20176;-77
2022/05/14 00:25:27;;;;;;;2.17;1.17;;;;;;;;;;4950533;28;20183;-77
2022/05/14 00:27:52;;;;;;;1.20;0.93;;;;;;;;;;4968230;28;20288;-77
2022/05/14 00:30:20;;;;;;;1.57;1.30;;;;;;;;;;4948322;28;20177;-77
2022/05/14 00:32:47;;;;;;;1.93;1.40;;;;;;;;;;4948837;28;20202;-77
2022/05/14 00:35:13;;;;;;;3.30;1.30;;;;;;;;;;4946617;28;20236;-78
2022/05/14 00:37:38;;;;;;;1.43;1.33;;;;;;;;;;4950389;28;20200;-77
2022/05/14 00:40:05;;;;;;;1.73;1.30;;;;;;;;;;4956915;28;20179;-77
2022/05/14 00:42:31;;;;;;;2.20;1.20;;;;;;;;;;4950638;28;20235;-78
2022/05/14 00:44:57;;;;;;;3.53;1.43;;;;;;;;;;4950599;28;20185;-78
2022/05/14 00:47:22;;;;;;;1.83;1.20;;;;;;;;;;4949330;28;20181;-77
2022/05/14 00:49:47;;;;;;;1.40;1.10;;;;;;;;;;4949432;29;20276;-77
2022/05/14 00:52:15;;;;;;;3.00;1.40;;;;;;;;;;4948893;28;20231;-77
2022/05/14 00:54:43;;;;;;;3.00;1.30;;;;;;;;;;4964061;28;20210;-77
2022/05/14 00:57:10;;;;;;;3.57;1.20;;;;;;;;;;4948785;28;20193;-78
2022/05/14 00:59:36;;;;;;;2.83;1.17;;;;;;;;;;4952645;28;20252;-78
2022/05/14 01:02:01;;;;;;;2.20;1.30;;;;;;;;;;4950426;28;20185;-77
2022/05/14 01:04:29;;;;;;;2.53;1.27;;;;;;;;;;4950121;28;20302;-77
2022/05/14 01:07:06;;;;;;;3.03;1.40;;;;;;;;;;4950683;28;20189;-77
2022/05/14 01:09:33;;;;;;;1.73;1.20;;;;;;;;;;4951407;28;20443;-78
2022/05/14 01:11:59;;;;;;;1.67;1.17;;;;;;;;;;4953059;28;20278;-77
2022/05/14 01:14:24;;;;;;;1.20;1.10;;;;;;;;;;4955408;28;20291;-77
2022/05/14 01:16:51;;;;;;;1.97;1.10;;;;;;;;;;4952184;29;20189;-78
2022/05/14 01:19:18;;;;;;;2.57;1.20;;;;;;;;;;4948261;28;20216;-78
2022/05/14 01:21:52;;;;;;;2.87;1.50;;;;;;;;;;4941941;28;20181;-77
2022/05/14 01:27:10;;;;;;;2.00;1.10;;;;;;;;;;4946340;28;20205;-77
2022/05/14 01:29:36;;;;;;;2.13;1.30;;;;;;;;;;4950478;28;20177;-78
2022/05/14 01:32:02;;;;;;;2.23;1.83;;;;;;;;;;4949543;28;20199;-78
2022/05/14 01:34:32;;;;;;;1.43;1.20;;;;;;;;;;4950110;28;20281;-77
2022/05/14 01:36:57;;;;;;;2.03;1.30;;;;;;;;;;4952423;28;20220;-77
2022/05/14 01:39:23;;;;;;;1.63;1.40;;;;;;;;;;4945611;28;20180;-77
2022/05/14 01:41:48;;;;;;;2.90;1.50;;;;;;;;;;4950451;28;20179;-77
2022/05/14 01:44:14;;;;;;;1.60;1.43;;;;;;;;;;4951235;28;20213;-77
2022/05/14 01:46:39;;;;;;;7.27;1.30;;;;;;;;;;4952994;28;20223;-77
2022/05/14 01:49:04;;;;;;;2.83;1.20;;;;;;;;;;4948353;28;20194;-77
2022/05/14 01:51:30;;;;;;;1.80;1.23;;;;;;;;;;4944876;28;20184;-78
2022/05/14 01:53:55;;;;;;;2.23;1.10;;;;;;;;;;4952808;28;20190;-77
2022/05/14 01:56:21;;;;;;;7.80;1.47;;;;;;;;;;4949597;28;20226;-77
2022/05/14 01:58:46;;;;;;;2.67;1.50;;;;;;;;;;4951463;28;20301;-77
2022/05/14 02:01:14;;;;;;;1.10;1.00;;;;;;;;;;4956539;28;20183;-76
2022/05/14 02:03:41;;;;;;;2.50;1.20;;;;;;;;;;4954984;28;20212;-77
2022/05/14 02:06:07;;;;;;;3.07;1.33;;;;;;;;;;4961358;28;20210;-78
2022/05/14 02:08:32;;;;;;;1.70;1.20;;;;;;;;;;4950136;28;20185;-77
2022/05/14 02:10:58;;;;;;;1.70;1.30;;;;;;;;;;4955438;28;20274;-77
2022/05/14 02:13:26;;;;;;;1.00;0.90;;;;;;;;;;4953299;28;20187;-77
2022/05/14 02:15:52;;;;;;;3.57;1.23;;;;;;;;;;4954154;28;20239;-76
2022/05/14 02:18:19;;;;;;;1.30;1.20;;;;;;;;;;4953384;28;20291;-77
2022/05/14 02:20:44;;;;;;;2.50;1.20;;;;;;;;;;4960335;28;20180;-77
2022/05/14 02:23:09;;;;;;;1.27;1.17;;;;;;;;;;4972454;28;20179;-77
2022/05/14 02:25:35;;;;;;;2.70;1.30;;;;;;;;;;4950831;28;20199;-78
2022/05/14 02:28:00;;;;;;;1.40;1.30;;;;;;;;;;4951794;28;20183;-77
2022/05/14 02:30:25;;;;;;;2.63;1.30;;;;;;;;;;4952885;28;20315;-77
2022/05/14 02:32:50;;;;;;;2.23;1.10;;;;;;;;;;4954472;28;20203;-77
2022/05/14 02:35:16;;;;;;;3.37;1.20;;;;;;;;;;4953981;28;20238;-77
2022/05/14 02:37:41;;;;;;;2.57;1.33;;;;;;;;;;4951540;28;20189;-77
2022/05/14 02:40:06;;;;;;;2.70;1.27;;;;;;;;;;4952893;28;20180;-77
2022/05/14 02:42:31;;;;;;;3.10;1.20;;;;;;;;;;4953297;28;20190;-77
2022/05/14 02:44:57;;;;;;;1.33;1.23;;;;;;;;;;4955448;28;20187;-77
2022/05/14 02:47:22;;;;;;;1.30;1.20;;;;;;;;;;4952427;28;20202;-77
2022/05/14 02:49:47;;;;;;;1.50;1.40;;;;;;;;;;4955317;28;20427;-77
2022/05/14 02:52:12;;;;;;;1.53;1.43;;;;;;;;;;4953457;28;20263;-77
2022/05/14 02:54:38;;;;;;;4.37;1.33;;;;;;;;;;4952448;28;20218;-77
2022/05/14 02:57:03;;;;;;;1.30;1.20;;;;;;;;;;4958593;28;20171;-77
2022/05/14 02:59:29;;;;;;;1.47;1.20;;;;;;;;;;4953209;28;20179;-77
2022/05/14 03:01:54;;;;;;;2.10;1.20;;;;;;;;;;4953339;28;20190;-77
2022/05/14 03:04:31;;;;;;;1.37;1.27;;;;;;;;;;4954249;28;20191;-77
2022/05/14 03:06:57;;;;;;;2.50;1.07;;;;;;;;;;4954085;28;20282;-77
2022/05/14 03:09:23;;;;;;;3.13;1.43;;;;;;;;;;4955093;28;20195;-77
2022/05/14 03:11:48;;;;;;;2.80;1.20;;;;;;;;;;4952473;28;20183;-77
2022/05/14 03:14:14;;;;;;;2.23;1.00;;;;;;;;;;4954672;28;20358;-77
2022/05/14 03:16:40;;;;;;;1.30;1.20;;;;;;;;;;4952288;28;20207;-78
2022/05/14 03:19:05;;;;;;;2.47;1.63;;;;;;;;;;4951458;28;20192;-77
2022/05/14 03:21:30;;;;;;;2.23;1.17;;;;;;;;;;4953466;28;20180;-77
2022/05/14 03:23:55;;;;;;;3.43;1.20;;;;;;;;;;4955100;28;20190;-77
2022/05/14 03:26:21;;;;;;;2.00;1.37;;;;;;;;;;4951153;28;20183;-78
2022/05/14 03:28:46;;;;;;;2.43;1.60;;;;;;;;;;4953589;28;20270;-77
2022/05/14 03:31:11;;;;;;;2.30;1.40;;;;;;;;;;4949752;28;20183;-76
2022/05/14 03:33:37;;;;;;;2.00;1.30;;;;;;;;;;4953895;28;20247;-77
2022/05/14 03:36:03;;;;;;;2.93;1.30;;;;;;;;;;4952495;28;20568;-77
2022/05/14 03:38:28;;;;;;;1.10;1.00;;;;;;;;;;4952533;28;20179;-77
2022/05/14 03:40:53;;;;;;;5.10;1.03;;;;;;;;;;4950602;28;20182;-77
2022/05/14 03:43:18;;;;;;;2.03;1.40;;;;;;;;;;4954081;28;20248;-77
2022/05/14 03:45:44;;;;;;;1.47;1.27;;;;;;;;;;4950609;28;20193;-78
2022/05/14 03:48:09;;;;;;;2.93;1.30;;;;;;;;;;4951792;28;20186;-77
2022/05/14 03:50:34;;;;;;;1.17;1.13;;;;;;;;;;4952423;28;20209;-77
2022/05/14 03:52:59;;;;;;;3.43;1.37;;;;;;;;;;4949261;28;20216;-77
2022/05/14 03:55:24;;;;;;;2.17;1.13;;;;;;;;;;4950911;28;20210;-77
2022/05/14 03:57:50;;;;;;;3.77;1.87;;;;;;;;;;4954178;28;20236;-77
2022/05/14 04:00:19;;;;;;;1.30;1.20;;;;;;;;;;4951724;28;20174;-78
2022/05/14 04:02:45;;;;;;;1.90;1.20;;;;;;;;;;4950863;28;20178;-77
2022/05/14 04:05:11;;;;;;;1.77;1.60;;;;;;;;;;4952735;28;20273;-78
2022/05/14 04:07:36;;;;;;;2.37;1.50;;;;;;;;;;4949565;28;20178;-77
2022/05/14 04:10:02;;;;;;;1.30;1.20;;;;;;;;;;4950295;28;20226;-77
2022/05/14 04:12:27;;;;;;;4.07;1.50;;;;;;;;;;4946700;28;20193;-77
2022/05/14 04:14:52;;;;;;;4.47;1.50;;;;;;;;;;4951320;28;20205;-77
2022/05/14 04:17:18;;;;;;;2.83;1.33;;;;;;;;;;4947553;29;20184;-77
2022/05/14 04:19:43;;;;;;;2.00;1.37;;;;;;;;;;4951254;28;20185;-78
2022/05/14 04:22:08;;;;;;;2.97;1.50;;;;;;;;;;4950477;28;20182;-77
2022/05/14 04:24:33;;;;;;;4.57;1.50;;;;;;;;;;4952843;28;20177;-77
2022/05/14 04:26:59;;;;;;;2.37;1.27;;;;;;;;;;4947334;28;20192;-77
2022/05/14 04:29:24;;;;;;;1.53;1.20;;;;;;;;;;4947437;28;20205;-76
2022/05/14 04:31:49;;;;;;;2.23;1.47;;;;;;;;;;4952281;28;20277;-77
2022/05/14 04:34:15;;;;;;;2.73;1.50;;;;;;;;;;4950623;28;20205;-78
2022/05/14 04:36:40;;;;;;;2.20;1.13;;;;;;;;;;4949454;28;20229;-77
2022/05/14 04:39:05;;;;;;;1.40;1.30;;;;;;;;;;4948759;28;20166;-77
2022/05/14 04:41:31;;;;;;;2.30;1.50;;;;;;;;;;4950781;28;20280;-77
2022/05/14 04:44:01;;;;;;;1.77;1.40;;;;;;;;;;4950910;28;20181;-77
2022/05/14 04:46:27;;;;;;;2.07;1.27;;;;;;;;;;4954092;28;20209;-77
2022/05/14 04:48:53;;;;;;;5.00;1.60;;;;;;;;;;4950323;28;20209;-77
2022/05/14 04:51:18;;;;;;;1.30;1.20;;;;;;;;;;4951954;28;20237;-77
2022/05/14 04:53:44;;;;;;;1.47;1.27;;;;;;;;;;4947750;28;20177;-77
2022/05/14 04:56:09;;;;;;;1.40;1.30;;;;;;;;;;4942700;28;20198;-78
2022/05/14 04:58:34;;;;;;;1.53;1.20;;;;;;;;;;4954370;28;20265;-77
2022/05/14 05:00:59;;;;;;;5.67;1.60;;;;;;;;;;4950344;28;20179;-77
2022/05/14 05:03:27;;;;;;;2.20;1.17;;;;;;;;;;4949630;28;20185;-77
2022/05/14 05:05:54;;;;;;;2.10;1.20;;;;;;;;;;4949929;28;20184;-76
2022/05/14 05:08:21;;;;;;;1.30;1.20;;;;;;;;;;4950199;28;20216;-77
2022/05/14 05:10:46;;;;;;;2.83;1.30;;;;;;;;;;4947786;28;20187;-77
2022/05/14 05:13:17;;;;;;;1.30;1.20;;;;;;;;;;4951171;28;20274;-77
2022/05/14 05:15:42;;;;;;;2.67;1.30;;;;;;;;;;4965971;28;20269;-77
2022/05/14 05:18:08;;;;;;;1.90;1.43;;;;;;;;;;4949008;28;20278;-77
2022/05/14 05:20:34;;;;;;;3.07;1.30;;;;;;;;;;4950242;28;20171;-78
2022/05/14 05:22:59;;;;;;;2.90;1.33;;;;;;;;;;4947510;28;20185;-77
2022/05/14 05:25:24;;;;;;;1.70;1.37;;;;;;;;;;4946680;28;20248;-77
2022/05/14 05:27:50;;;;;;;2.47;1.13;;;;;;;;;;4952074;28;20181;-77
2022/05/14 05:30:16;;;;;;;3.60;1.37;;;;;;;;;;4949822;28;20187;-77
2022/05/14 05:32:41;;;;;;;1.67;1.30;;;;;;;;;;4951149;28;20209;-77
2022/05/14 05:35:06;;;;;;;2.83;1.10;;;;;;;;;;4947925;28;20213;-77
2022/05/14 05:37:31;;;;;;;3.73;1.20;;;;;;;;;;4945749;28;20179;-76
2022/05/14 05:39:57;;;;;;;2.70;1.20;;;;;;;;;;4952598;28;20178;-77
2022/05/14 05:42:22;;;;;;;3.40;1.20;;;;;;;;;;4951468;28;20260;-77
2022/05/14 05:44:47;;;;;;;1.13;1.00;;;;;;;;;;4951973;28;20188;-77
2022/05/14 05:47:13;;;;;;;3.43;1.30;;;;;;;;;;4948187;28;20234;-77
2022/05/14 05:49:38;;;;;;;5.10;1.53;;;;;;;;;;4968953;28;20199;-77
2022/05/14 05:52:04;;;;;;;1.47;1.07;;;;;;;;;;4953297;28;20778;-81
2022/05/14 05:57:13;;;;;;;2.60;1.30;;;;;;;;;;4954034;28;20210;-80
2022/05/14 05:59:38;;;;;;;2.57;1.30;;;;;;;;;;4955238;28;20183;-80
2022/05/14 06:02:04;;;;;;;1.83;1.03;;;;;;;;;;4951491;28;20180;-80
2022/05/14 06:04:29;;;;;;;4.97;1.70;;;;;;;;;;4949895;28;20176;-80
2022/05/14 06:06:54;;;;;;;1.30;1.20;;;;;;;;;;4956096;28;20188;-80
2022/05/14 06:09:21;;;;;;;1.93;1.30;;;;;;;;;;4953104;28;20180;-79
2022/05/14 06:11:47;;;;;;;2.97;1.27;;;;;;;;;;4949721;28;20450;-80
2022/05/14 06:14:12;;;;;;;4.97;1.30;;;;;;;;;;4953547;28;20287;-80
2022/05/14 06:16:38;;;;;;;1.43;1.30;;;;;;;;;;4963522;28;21213;-80
2022/05/14 06:19:04;;;;;;;3.23;1.00;;;;;;;;;;4953275;28;20184;-79
2022/05/14 06:21:29;;;;;;;2.13;1.10;;;;;;;;;;4955114;28;20182;-80
2022/05/14 06:23:55;;;;;;;1.10;1.10;;;;;;;;;;4959596;28;20369;-80
2022/05/14 06:26:20;;;;;;;2.07;1.30;;;;;;;;;;4951576;28;20177;-80
2022/05/14 06:28:45;;;;;;;2.27;1.37;;;;;;;;;;4954601;28;20190;-79
2022/05/14 06:31:10;;;;;;;3.90;1.30;;;;;;;;;;4954007;28;20273;-80
2022/05/14 06:33:37;;;;;;;1.80;1.53;;;;;;;;;;4959269;28;20200;-79
2022/05/14 06:36:02;;;;;;;2.87;1.30;;;;;;;;;;4951707;28;20319;-79
2022/05/14 06:38:27;;;;;;;1.80;1.20;;;;;;;;;;4952608;28;20264;-80
2022/05/14 06:40:53;;;;;;;2.30;1.27;;;;;;;;;;4953812;28;20198;-79
2022/05/14 06:43:19;;;;;;;1.50;1.10;;;;;;;;;;4948840;28;20186;-79
2022/05/14 06:45:44;;;;;;;2.00;1.10;;;;;;;;;;4952262;28;20185;-79
2022/05/14 06:48:10;;;;;;;3.50;1.40;;;;;;;;;;4951332;28;20268;-80
2022/05/14 06:50:39;;;;;;;2.13;1.10;;;;;;;;;;4950953;28;20182;-80
2022/05/14 06:53:04;;;;;;;1.37;1.20;;;;;;;;;;4953744;28;20178;-80
2022/05/14 06:55:32;;;;;;;3.87;1.30;;;;;;;;;;4951063;28;20206;-80
2022/05/14 06:57:58;;;;;;;2.00;1.37;;;;;;;;;;4953677;28;20170;-80
2022/05/14 07:00:23;;;;;;;2.07;1.30;;;;;;;;;;4951889;28;20185;-80
2022/05/14 07:02:49;;;;;;;5.03;1.40;;;;;;;;;;4949820;28;20178;-79
2022/05/14 07:07:58;;;;;;;3.47;1.87;;;;;;;;;;4958187;28;20184;-79
2022/05/14 07:10:23;;;;;;;3.73;1.40;;;;;;;;;;4953697;28;20176;-79
2022/05/14 07:12:49;;;;;;;4.70;2.17;;;;;;;;;;4947645;28;20193;-79
2022/05/14 07:15:15;;;;;;;2.80;1.30;;;;;;;;;;4955048;28;20205;-80
2022/05/14 07:17:41;;;;;;;1.87;1.33;;;;;;;;;;4951552;28;20471;-80
2022/05/14 07:20:06;;;;;;;1.60;1.20;;;;;;;;;;4948968;28;20188;-79
2022/05/14 07:22:32;;;;;;;6.13;1.60;;;;;;;;;;4953543;28;20178;-79
2022/05/14 07:24:57;;;;;;;2.40;1.23;;;;;;;;;;4980856;23;20900;-79
2022/05/14 07:27:22;;;;;;;4.23;1.73;;;;;;;;;;4991173;28;20180;-78
2022/05/14 07:29:48;;;;;;;1.83;1.20;;;;;;;;;;4975214;28;20196;-80
2022/05/14 07:32:17;;;;;;;2.30;1.37;;;;;;;;;;4975019;28;20287;-79
2022/05/14 07:34:43;;;;;;;2.93;1.43;;;;;;;;;;4992701;28;20205;-80
2022/05/14 07:37:08;;;;;;;2.07;1.40;;;;;;;;;;4991316;28;20184;-79
2022/05/14 07:39:37;;;;;;;3.63;1.53;;;;;;;;;;4991700;28;20177;-79
2022/05/14 07:42:04;;;;;;;5.70;1.33;;;;;;;;;;4987499;28;20183;-79
2022/05/14 07:44:33;;;;;;;2.83;1.50;;;;;;;;;;4989722;28;20312;-79
2022/05/14 07:46:58;;;;;;;2.90;1.50;;;;;;;;;;4989048;28;20174;-79
2022/05/14 07:49:26;;;;;;;1.60;1.27;;;;;;;;;;4991026;28;20185;-78
2022/05/14 07:51:53;;;;;;;1.37;1.10;;;;;;;;;;4991318;28;20186;-79
2022/05/14 07:54:18;;;;;;;1.70;1.30;;;;;;;;;;4988460;28;20203;-79
2022/05/14 07:56:44;;;;;;;5.20;1.83;;;;;;;;;;4987147;28;20201;-79
2022/05/14 07:59:09;;;;;;;4.47;1.57;;;;;;;;;;4990521;28;20179;-80
2022/05/14 08:01:34;;;;;;;4.53;1.63;;;;;;;;;;4989317;28;20245;-79
2022/05/14 08:03:59;;;;;;;2.83;1.13;;;;;;;;;;4987674;28;20174;-79
2022/05/14 08:06:25;;;;;;;3.67;1.40;;;;;;;;;;4989272;28;20221;-79
2022/05/14 08:08:51;;;;;;;1.50;1.30;;;;;;;;;;4994469;28;20179;-79
2022/05/14 08:11:17;;;;;;;1.97;1.30;;;;;;;;;;4989882;28;20200;-79
2022/05/14 08:13:43;;;;;;;2.23;1.40;;;;;;;;;;4994886;28;20227;-79
2022/05/14 08:16:08;;;;;;;2.07;1.43;;;;;;;;;;4984483;28;20198;-79
2022/05/14 08:18:33;;;;;;;1.57;1.40;;;;;;;;;;4990402;28;20210;-79
2022/05/14 08:24:29;;;;;;;2.83;1.40;;;;;;;;;;4989125;28;20176;-80
2022/05/14 08:26:28;;;;;;;1.50;1.27;;;;;;;;;;4984907;28;20250;-79
2022/05/14 08:28:53;;;;;;;4.30;1.27;;;;;;;;;;4982339;28;20180;-80
2022/05/14 08:31:18;;;;;;;2.33;1.40;;;;;;;;;;4986635;28;20207;-79
2022/05/14 08:33:43;;;;;;;2.17;2.00;;;;;;;;;;4991833;28;20201;-79
2022/05/14 08:36:08;;;;;;;3.20;1.30;;;;;;;;;;4990350;28;20212;-79
2022/05/14 08:38:34;;;;;;;2.30;1.30;;;;;;;;;;4987989;28;20186;-79
2022/05/14 08:40:59;;;;;;;2.80;1.37;;;;;;;;;;4990767;28;20176;-79
2022/05/14 08:43:28;;;;;;;1.40;1.30;;;;;;;;;;4989172;28;20195;-78
2022/05/14 08:45:53;;;;;;;2.67;1.23;;;;;;;;;;4990312;28;20182;-79
2022/05/14 08:48:24;;;;;;;2.60;1.00;;;;;;;;;;4988530;28;20199;-79
2022/05/14 08:51:09;;;;;;;2.03;1.40;;;;;;;;;;4989150;28;20173;-79
2022/05/14 08:53:36;;;;;;;2.90;1.40;;;;;;;;;;4974740;28;20188;-78
2022/05/14 08:56:11;;;;;;;1.40;1.30;;;;;;;;;;4985645;28;20202;-79
2022/05/14 08:58:54;;;;;;;1.50;1.10;;;;;;;;;;4982588;28;20189;-79
2022/05/14 09:01:22;;;;;;;1.20;1.10;;;;;;;;;;4989006;28;20177;-79
2022/05/14 09:03:48;;;;;;;2.70;1.40;;;;;;;;;;4989734;28;20183;-79
2022/05/14 09:06:13;;;;;;;3.50;1.30;;;;;;;;;;5003710;28;20193;-80
2022/05/14 09:08:38;;;;;;;4.77;2.13;;;;;;;;;;4986583;28;20217;-80
2022/05/14 09:11:10;;;;;;;2.83;1.43;;;;;;;;;;4991395;28;20170;-79
2022/05/14 09:13:43;;;;;;;3.27;1.70;;;;;;;;;;4988474;28;20178;-79
2022/05/14 09:16:18;;;;;;;2.27;1.40;;;;;;;;;;4990670;28;20258;-79
2022/05/14 09:18:44;;;;;;;1.90;1.23;;;;;;;;;;4986366;28;20226;-80
2022/05/14 09:21:17;;;;;;;4.13;1.70;;;;;;;;;;4989151;28;20188;-79
2022/05/14 09:23:44;;;;;;;4.57;1.67;;;;;;;;;;4990078;28;20179;-79
2022/05/14 09:26:11;;;;;;;2.23;1.30;;;;;;;;;;4989587;28;20188;-80
2022/05/14 09:28:40;;;;;;;1.20;1.13;;;;;;;;;;4989428;28;20229;-80
2022/05/14 09:31:06;;;;;;;1.60;1.33;;;;;;;;;;4988147;28;20192;-80
2022/05/14 09:33:38;;;;;;;2.60;1.80;;;;;;;;;;4990257;28;20197;-79
2022/05/14 09:36:04;;;;;;;1.60;1.20;;;;;;;;;;4986020;28;20211;-79
2022/05/14 09:38:30;;;;;;;1.43;1.23;;;;;;;;;;4989310;28;20175;-78
2022/05/14 09:41:06;;;;;;;1.63;1.13;;;;;;;;;;4994461;28;20168;-80
2022/05/14 09:43:33;;;;;;;2.77;1.30;;;;;;;;;;4986399;28;20179;-80
2022/05/14 09:46:00;;;;;;;2.93;1.40;;;;;;;;;;4989937;28;20247;-79
2022/05/14 09:48:30;;;;;;;1.97;1.20;;;;;;;;;;4990510;28;20218;-80
2022/05/14 09:50:56;;;;;;;1.67;1.17;;;;;;;;;;4990070;28;20225;-80
2022/05/14 09:53:27;;;;;;;2.50;1.83;;;;;;;;;;4989470;28;20191;-79
2022/05/14 09:56:07;;;;;;;1.50;1.00;;;;;;;;;;4990479;28;20239;-80
2022/05/14 09:58:35;;;;;;;4.37;1.30;;;;;;;;;;4983075;28;20183;-78
2022/05/14 10:01:21;;;;;;;2.27;1.33;;;;;;;;;;4988680;28;20175;-78
2022/05/14 10:03:56;;;;;;;1.93;1.50;;;;;;;;;;4984851;28;20185;-79
2022/05/14 10:06:21;;;;;;;1.47;1.20;;;;;;;;;;4990932;28;20188;-79
2022/05/14 10:09:06;;;;;;;3.37;1.40;;;;;;;;;;4987760;28;20189;-80
2022/05/14 10:11:37;;;;;;;1.93;1.10;;;;;;;;;;4985814;28;20182;-78
2022/05/14 10:14:18;;;;;;;2.90;1.27;;;;;;;;;;4990254;28;20224;-79
2022/05/14 10:16:55;;;;;;;3.60;1.30;;;;;;;;;;4993316;28;20169;-79
2022/05/14 10:19:23;;;;;;;2.90;1.30;;;;;;;;;;4989381;28;20178;-80
2022/05/14 10:21:48;;;;;;;1.57;1.47;;;;;;;;;;4989603;28;20185;-80
2022/05/14 10:27:27;;;;;;;1.93;1.20;;;;;;;;;;4985058;28;20186;-79
2022/05/14 10:30:01;;;;;;;1.63;1.30;;;;;;;;;;4992472;28;20266;-79
2022/05/14 10:32:29;;;;;;;5.13;1.40;;;;;;;;;;5006671;28;20198;-79
2022/05/14 10:35:15;;;;;;;3.70;1.67;;;;;;;;;;4991953;28;20210;-79
2022/05/14 10:37:48;;;;;;;1.50;1.40;;;;;;;;;;4992425;28;20181;-79
2022/05/14 10:40:20;;;;;;;1.67;1.40;;;;;;;;;;4994012;28;20254;-79
2022/05/14 10:42:48;;;;;;;4.07;1.47;;;;;;;;;;4989710;28;20229;-78
2022/05/14 10:45:14;;;;;;;1.63;1.30;;;;;;;;;;4991701;28;20207;-79
2022/05/14 10:47:45;;;;;;;2.03;1.47;;;;;;;;;;4993410;28;20189;-79
2022/05/14 10:50:20;;;;;;;3.03;1.70;;;;;;;;;;4991899;28;20182;-79
2022/05/14 10:52:47;;;;;;;1.87;1.20;;;;;;;;;;4992637;28;20191;-79
2022/05/14 10:55:21;;;;;;;3.13;1.50;;;;;;;;;;4994096;28;20354;-79
2022/05/14 10:57:47;;;;;;;2.70;1.70;;;;;;;;;;4987630;28;20179;-79
2022/05/14 11:00:18;;;;;;;1.63;1.47;;;;;;;;;;4988942;28;20311;-79
2022/05/14 11:03:12;;;;;;;2.27;1.43;;;;;;;;;;5009089;28;20180;-79
2022/05/14 11:05:52;;;;;;;2.17;1.40;;;;;;;;;;4980927;28;20194;-76
2022/05/14 11:08:38;;;;;;;2.70;2.23;;;;;;;;;;4990273;28;20242;-76
2022/05/14 11:11:08;;;;;;;1.67;1.57;;;;;;;;;;4987424;28;20182;-77
2022/05/14 11:13:34;;;;;;;1.70;1.53;;;;;;;;;;4989196;28;20179;-76
2022/05/14 11:16:05;;;;;;;4.57;1.83;;;;;;;;;;4991242;28;20261;-77
2022/05/14 11:18:42;;;;;;;3.17;1.83;;;;;;;;;;4985942;28;20230;-77
2022/05/14 11:21:07;;;;;;;1.97;1.23;;;;;;;;;;4986639;28;20176;-76
2022/05/14 11:23:32;;;;;;;4.40;1.60;;;;;;;;;;4979768;28;20180;-76
2022/05/14 11:26:14;;;;;;;2.40;1.60;;;;;;;;;;4989589;28;20224;-77
2022/05/14 11:28:39;;;;;;;2.77;1.60;;;;;;;;;;4989275;28;20194;-77
2022/05/14 11:31:10;;;;;;;3.23;1.70;;;;;;;;;;4987813;28;20190;-77
2022/05/14 11:33:37;;;;;;;4.13;1.90;;;;;;;;;;4987379;28;20229;-77
2022/05/14 11:36:15;;;;;;;4.43;1.50;;;;;;;;;;4987792;28;20281;-76
2022/05/14 11:38:42;;;;;;;2.97;1.67;;;;;;;;;;4987608;28;20187;-78
2022/05/14 11:41:09;;;;;;;2.23;1.50;;;;;;;;;;4986345;28;20211;-76
2022/05/14 11:43:49;;;;;;;2.87;2.20;;;;;;;;;;4990524;28;20203;-76
2022/05/14 11:46:20;;;;;;;3.27;1.70;;;;;;;;;;4986907;28;20392;-77
2022/05/14 11:48:49;;;;;;;3.43;1.50;;;;;;;;;;4991577;28;20191;-77
2022/05/14 11:51:17;;;;;;;3.60;1.70;;;;;;;;;;4987354;28;20222;-77
2022/05/14 11:53:45;;;;;;;1.70;1.60;;;;;;;;;;4986998;28;20187;-76
2022/05/14 11:56:15;;;;;;;5.90;1.70;;;;;;;;;;4989806;28;20213;-77
2022/05/14 11:59:01;;;;;;;4.47;1.40;;;;;;;;;;4991040;28;20283;-77
2022/05/14 12:01:30;;;;;;;1.60;1.47;;;;;;;;;;4983343;28;20190;-77
2022/05/14 12:03:59;;;;;;;3.93;1.90;;;;;;;;;;4989247;28;20229;-76
2022/05/14 12:06:30;;;;;;;3.57;1.83;;;;;;;;;;4985663;28;20310;-76
2022/05/14 12:09:08;;;;;;;3.70;1.63;;;;;;;;;;4989035;28;20186;-77
2022/05/14 12:11:52;;;;;;;3.83;1.77;;;;;;;;;;5005337;28;20466;-77
2022/05/14 12:14:27;;;;;;;2.50;1.80;;;;;;;;;;4988260;28;20218;-77
2022/05/14 12:16:54;;;;;;;3.75;1.80;;;;;;;;;;4990255;28;20176;-77
2022/05/14 12:19:39;;;;;;;2.83;2.00;;;;;;;;;;4986942;28;20255;-76
2022/05/14 12:22:15;;;;;;;1.97;1.60;;;;;;;;;;4988558;28;20183;-76
2022/05/14 12:24:52;;;;;;;3.65;1.77;;;;;;;;;;4986153;28;20231;-76
2022/05/14 12:27:18;;;;;;;3.08;1.58;;;;;;;;;;5007506;28;20199;-76
2022/05/14 12:29:54;;;;;;;2.53;2.07;;;;;;;;;;4989061;28;20220;-76
2022/05/14 12:35:14;;;;;;;5.05;1.70;;;;;;;;;;4985856;28;20206;-77
2022/05/14 12:37:40;;;;;;;3.70;1.40;;;;;;;;;;4987232;28;20241;-77
2022/05/14 12:40:06;;;;;;;3.53;1.48;;;;;;;;;;4988033;28;20302;-76
2022/05/14 12:42:40;;;;;;;4.93;2.10;;;;;;;;;;4986901;28;20318;-77
2022/05/14 12:45:09;;;;;;;2.58;1.63;;;;;;;;;;4990329;28;20183;-77
2022/05/14 12:47:34;;;;;;;2.60;1.85;;;;;;;;;;4993148;28;20483;-77
2022/05/14 12:50:01;;;;;;;2.13;1.55;;;;;;;;;;4986555;28;20184;-76
2022/05/14 12:52:29;;;;;;;1.90;1.50;;;;;;;;;;4986090;28;20190;-77
2022/05/14 12:54:57;;;;;;;5.35;1.75;;;;;;;;;;4991113;28;20262;-77
2022/05/14 12:57:23;;;;;;;3.83;1.50;;;;;;;;;;4987882;28;20196;-76
2022/05/14 12:59:48;;;;;;;4.13;1.50;;;;;;;;;;4989691;28;20184;-77
2022/05/14 13:02:28;;;;;;;2.08;1.65;;;;;;;;;;4985603;28;20184;-76
2022/05/14 13:05:05;;;;;;;1.85;1.50;;;;;;;;;;4988534;28;20206;-76
2022/05/14 13:07:32;;;;;;;2.75;2.10;;;;;;;;;;4990511;28;20179;-77
2022/05/14 13:09:57;;;;;;;2.50;1.60;;;;;;;;;;4990498;28;20168;-77
2022/05/14 13:12:25;;;;;;;2.92;1.58;;;;;;;;;;4989343;28;20187;-77
2022/05/14 13:14:54;;;;;;;4.10;1.45;;;;;;;;;;4990883;28;20204;-77
2022/05/14 13:17:21;;;;;;;3.78;2.00;;;;;;;;;;4988350;28;20192;-77
2022/05/14 13:19:48;;;;;;;4.47;2.00;;;;;;;;;;4991458;28;20255;-76
2022/05/14 13:22:25;;;;;;;3.45;1.80;;;;;;;;;;4986036;28;20408;-77
2022/05/14 13:24:52;;;;;;;1.98;1.75;;;;;;;;;;4990806;28;20231;-77
2022/05/14 13:27:26;;;;;;;2.53;1.30;;;;;;;;;;4988066;28;20263;-76
2022/05/14 13:29:58;;;;;;;2.80;1.67;;;;;;;;;;4987957;28;20278;-76
2022/05/14 13:32:23;;;;;;;2.67;1.58;;;;;;;;;;4987462;28;20223;-76
2022/05/14 13:37:37;;;;;;;1.75;1.63;;;;;;;;;;4988557;28;20481;-76
2022/05/14 13:40:15;;;;;;;6.25;1.83;;;;;;;;;;4994296;28;20220;-77
2022/05/14 13:42:46;;;;;;;6.82;2.28;;;;;;;;;;4991392;28;20176;-77
2022/05/14 13:45:25;;;;;;;2.03;1.65;;;;;;;;;;4988017;28;20187;-76
2022/05/14 13:47:59;;;;;;;3.03;1.70;;;;;;;;;;4987006;28;20176;-76
2022/05/14 13:50:35;;;;;;;2.70;1.35;;;;;;;;;;4987127;28;22140;-76
2022/05/14 13:53:01;;;;;;;1.60;1.50;;;;;;;;;;4986888;28;20188;-76
2022/05/14 13:55:28;;;;;;;5.55;1.88;;;;;;;;;;4988870;28;20212;-76
2022/05/14 13:57:58;;;;;;;2.70;2.50;;;;;;;;;;4987400;28;20192;-77
2022/05/14 14:00:24;;;;;;;2.03;1.60;;;;;;;;;;4991522;28;20183;-77
2022/05/14 14:03:01;;;;;;;11.68;2.17;;;;;;;;;;4997119;28;20599;-76
2022/05/14 14:05:26;;;;;;;1.45;1.35;;;;;;;;;;4994999;28;20176;-77
2022/05/14 14:07:51;;;;;;;6.28;1.73;;;;;;;;;;4995062;28;20187;-77
2022/05/14 14:10:21;;;;;;;1.33;1.15;;;;;;;;;;4993252;28;20188;-76
2022/05/14 14:12:47;;;;;;;4.03;1.63;;;;;;;;;;4991550;28;20173;-76
2022/05/14 14:15:16;;;;;;;1.73;1.38;;;;;;;;;;4994039;28;20207;-76
2022/05/14 14:17:47;;;;;;;2.80;1.63;;;;;;;;;;4994314;28;20179;-76
2022/05/14 14:20:13;;;;;;;1.50;1.40;;;;;;;;;;4993315;28;20169;-76
2022/05/14 14:22:38;;;;;;;1.60;1.50;;;;;;;;;;4993295;28;20180;-76
2022/05/14 14:25:04;;;;;;;1.48;1.25;;;;;;;;;;4992942;28;20310;-77
2022/05/14 14:27:30;;;;;;;3.42;1.80;;;;;;;;;;4993649;28;20180;-76
2022/05/14 14:29:57;;;;;;;1.95;1.30;;;;;;;;;;4993422;28;20180;-77
2022/05/14 14:32:23;;;;;;;2.10;1.60;;;;;;;;;;4990326;28;20212;-77
2022/05/14 14:34:48;;;;;;;2.63;1.40;;;;;;;;;;4995344;28;20265;-76
2022/05/14 14:37:13;;;;;;;1.50;1.40;;;;;;;;;;4988902;28;20315;-76
2022/05/14 14:39:39;;;;;;;2.38;1.58;;;;;;;;;;4993426;28;20176;-77
2022/05/14 14:42:05;;;;;;;1.88;1.35;;;;;;;;;;4992461;28;20175;-76
2022/05/14 14:44:30;;;;;;;1.70;1.45;;;;;;;;;;4993214;28;20176;-76
2022/05/14 14:46:58;;;;;;;1.30;1.13;;;;;;;;;;4991835;28;20211;-76
2022/05/14 14:49:23;;;;;;;5.07;1.65;;;;;;;;;;4993941;28;20187;-76
2022/05/14 14:51:50;;;;;;;2.22;1.23;;;;;;;;;;4991387;28;20244;-76
2022/05/14 14:54:15;;;;;;;1.42;1.20;;;;;;;;;;4991347;28;20176;-76
2022/05/14 14:56:40;;;;;;;1.52;1.30;;;;;;;;;;4991603;28;20172;-76
2022/05/14 14:59:05;;;;;;;2.85;1.50;;;;;;;;;;4991942;28;20254;-76
2022/05/14 15:01:34;;;;;;;1.65;1.20;;;;;;;;;;4992287;28;20417;-76
2022/05/14 15:04:11;;;;;;;1.48;1.38;;;;;;;;;;4992279;28;20247;-76
2022/05/14 15:06:36;;;;;;;2.70;1.42;;;;;;;;;;4988191;28;20180;-76
2022/05/14 15:09:01;;;;;;;2.60;1.50;;;;;;;;;;4991700;28;20191;-77